createdAt,value
2019-02-26T00:01:18.490Z,39.15
2019-02-26T00:05:23.797Z,37.17
2019-02-26T00:09:30.541Z,41.50
2019-02-26T00:13:36.610Z,42.65
2019-02-26T00:17:45.307Z,36.68
2019-02-26T00:21:49.731Z,35.10
2019-02-26T00:25:54.269Z,39.33
2019-02-26T00:29:58.661Z,40.88
2019-02-26T00:34:03.361Z,37.83
2019-02-26T00:38:08.972Z,40.35
2019-02-26T00:42:13.912Z,38.28
2019-02-26T00:46:19.275Z,44.70
2019-02-26T00:50:24.243Z,43.60
2019-02-26T00:54:31.972Z,45.30
2019-02-26T00:58:38.944Z,44.60
2019-02-26T01:02:42.654Z,43.45
2019-02-26T01:06:47.595Z,44.13
2019-02-26T01:10:57.148Z,44.80
2019-02-26T01:15:09.471Z,41.20
2019-02-26T01:19:17.517Z,47.38
2019-02-26T01:23:24.253Z,41.70
2019-02-26T01:27:31.191Z,43.68
2019-02-26T01:31:41.138Z,38.28
2019-02-26T01:36:07.818Z,39.33
2019-02-26T01:40:13.769Z,46.10
2019-02-26T01:44:28.109Z,46.85
2019-02-26T01:48:34.870Z,47.67
2019-02-26T01:52:40.359Z,48.20
2019-02-26T01:56:45.531Z,44.08
2019-02-26T02:00:50.071Z,46.40
2019-02-26T02:04:55.136Z,40.12
2019-02-26T02:09:02.445Z,44.45
2019-02-26T02:13:09.257Z,42.80
2019-02-26T02:17:14.966Z,45.35
2019-02-26T02:21:19.570Z,45.58
2019-02-26T02:25:24.648Z,45.67
2019-02-26T02:29:31.731Z,41.25
2019-02-26T02:33:37.669Z,47.78
2019-02-26T02:37:42.442Z,47.30
2019-02-26T02:41:48.762Z,47.85
2019-02-26T02:45:55.807Z,52.20
2019-02-26T02:49:59.345Z,54.00
2019-02-26T02:54:03.888Z,49.63
2019-02-26T02:58:08.672Z,49.67
2019-02-26T03:02:15.038Z,53.13
2019-02-26T03:06:20.042Z,48.40
2019-02-26T03:10:28.467Z,56.73
2019-02-26T03:14:33.814Z,53.65
2019-02-26T03:18:37.768Z,55.85
2019-02-26T03:22:45.924Z,54.70
2019-02-26T03:26:48.455Z,50.12
2019-02-26T03:30:52.920Z,54.98
2019-02-26T03:35:02.111Z,60.90
2019-02-26T03:39:05.075Z,53.28
2019-02-26T03:43:13.230Z,53.73
2019-02-26T03:47:18.870Z,61.23
2019-02-26T03:51:24.117Z,51.65
2019-02-26T03:55:31.723Z,58.78
2019-02-26T03:59:36.129Z,58.25
2019-02-26T04:03:42.473Z,57.93
2019-02-26T04:07:51.701Z,54.88
2019-02-26T04:11:55.431Z,59.15
2019-02-26T04:16:03.853Z,52.40
2019-02-26T04:20:07.000Z,57.50
2019-02-26T04:24:11.490Z,55.30
2019-02-26T04:28:30.691Z,53.83
2019-02-26T04:32:48.812Z,55.58
2019-02-26T04:37:39.133Z,60.00
2019-02-26T04:42:00.872Z,58.30
2019-02-26T04:46:54.027Z,59.18
2019-02-26T04:50:59.839Z,63.33
2019-02-26T04:55:05.795Z,57.53
2019-02-26T04:59:12.541Z,67.08
2019-02-26T05:03:20.093Z,59.18
2019-02-26T05:07:23.851Z,62.15
2019-02-26T05:11:32.404Z,58.08
2019-02-26T05:15:34.948Z,62.90
2019-02-26T05:19:42.419Z,61.33
2019-02-26T05:23:46.615Z,56.88
2019-02-26T05:27:52.540Z,62.85
2019-02-26T05:31:58.880Z,62.15
2019-02-26T05:36:04.063Z,58.40
2019-02-26T05:40:12.860Z,60.80
2019-02-26T05:44:15.689Z,62.67
2019-02-26T05:48:21.314Z,66.57
2019-02-26T05:52:27.229Z,61.75
2019-02-26T05:56:34.133Z,65.40
2019-02-26T06:00:39.372Z,63.50
2019-02-26T06:04:47.664Z,65.25
2019-02-26T06:08:55.301Z,65.47
2019-02-26T06:12:58.863Z,65.62
2019-02-26T06:17:03.319Z,83.50
2019-02-26T06:21:08.074Z,62.10
2019-02-26T06:25:18.616Z,63.10
2019-02-26T06:29:22.258Z,68.62
2019-02-26T06:33:31.860Z,64.37
2019-02-26T06:37:33.705Z,65.03
2019-02-26T06:41:41.790Z,63.63
2019-02-26T06:45:47.679Z,67.10
2019-02-26T06:49:52.687Z,71.67
2019-02-26T06:53:58.771Z,69.35
2019-02-26T06:58:23.771Z,68.15
2019-02-26T07:02:29.161Z,71.50
2019-02-26T07:06:34.911Z,69.67
2019-02-26T07:10:40.141Z,68.95
2019-02-26T07:14:46.446Z,67.37
2019-02-26T07:18:51.292Z,73.97
2019-02-26T07:22:56.037Z,67.30
2019-02-26T07:27:02.462Z,69.62
2019-02-26T07:31:08.113Z,67.30
2019-02-26T07:35:16.385Z,73.22
2019-02-26T07:39:20.920Z,73.87
2019-02-26T07:43:26.068Z,73.15
2019-02-26T07:47:31.453Z,68.50
2019-02-26T07:51:38.548Z,71.00
2019-02-26T07:55:44.023Z,70.78
2019-02-26T07:59:50.722Z,70.55
2019-02-26T08:03:55.380Z,74.10
2019-02-26T08:08:00.420Z,73.25
2019-02-26T08:12:07.189Z,74.05
2019-02-26T08:16:12.155Z,70.15
2019-02-26T08:20:16.866Z,77.78
2019-02-26T08:24:24.634Z,73.00
2019-02-26T08:28:29.228Z,71.10
2019-02-26T08:32:33.705Z,78.78
2019-02-26T08:36:38.475Z,75.10
2019-02-26T08:40:43.012Z,80.38
2019-02-26T08:44:48.645Z,75.85
2019-02-26T08:48:53.907Z,74.62
2019-02-26T08:53:00.813Z,71.15
2019-02-26T08:57:05.747Z,80.65
2019-02-26T09:01:10.143Z,77.42
2019-02-26T09:05:14.619Z,75.57
2019-02-26T09:09:21.002Z,78.75
2019-02-26T09:13:26.293Z,75.05
2019-02-26T09:17:32.472Z,80.95
2019-02-26T09:21:41.751Z,77.10
2019-02-26T09:25:48.578Z,85.03
2019-02-26T09:29:51.470Z,76.70
2019-02-26T09:33:56.336Z,79.70
2019-02-26T09:38:01.034Z,83.25
2019-02-26T09:42:06.608Z,79.03
2019-02-26T09:46:16.326Z,84.52
2019-02-26T09:50:22.568Z,79.65
2019-02-26T09:54:26.947Z,78.55
2019-02-26T09:58:32.550Z,76.95
2019-02-26T10:02:37.290Z,85.15
2019-02-26T10:06:43.019Z,83.30
2019-02-26T10:10:51.381Z,75.92
2019-02-26T10:14:59.609Z,75.30
2019-02-26T10:19:02.605Z,78.85
2019-02-26T10:23:07.511Z,81.12
2019-02-26T10:27:14.605Z,75.30
2019-02-26T10:31:23.945Z,84.70
2019-02-26T10:35:33.363Z,80.00
2019-02-26T10:39:32.416Z,77.00
2019-02-26T10:43:37.220Z,76.05
2019-02-26T10:47:41.967Z,80.12
2019-02-26T10:51:46.724Z,79.40
2019-02-26T10:55:51.489Z,75.45
2019-02-26T10:59:59.177Z,73.20
2019-02-26T11:04:04.280Z,76.77
2019-02-26T11:08:09.557Z,82.30
2019-02-26T11:12:14.440Z,77.90
2019-02-26T11:16:25.285Z,78.45
2019-02-26T11:20:30.032Z,73.45
2019-02-26T11:24:33.694Z,76.47
2019-02-26T11:28:40.545Z,75.25
2019-02-26T11:32:47.384Z,80.62
2019-02-26T11:36:58.487Z,71.97
2019-02-26T11:41:03.951Z,74.10
2019-02-26T11:45:12.586Z,78.42
2019-02-26T11:49:19.393Z,73.80
2019-02-26T11:53:25.096Z,83.00
2019-02-26T11:57:32.577Z,75.03
2019-02-26T12:01:39.011Z,76.15
2019-02-26T12:05:42.779Z,74.65
2019-02-26T12:09:47.366Z,72.82
2019-02-26T12:13:53.146Z,77.85
2019-02-26T12:17:58.897Z,76.20
2019-02-26T12:22:05.399Z,72.53
2019-02-26T12:26:11.339Z,73.55
2019-02-26T12:30:20.517Z,77.35
2019-02-26T12:34:24.652Z,69.70
2019-02-26T12:38:29.116Z,76.45
2019-02-26T12:42:33.640Z,73.67
2019-02-26T12:46:39.598Z,69.97
2019-02-26T12:50:44.540Z,76.30
2019-02-26T12:54:49.029Z,69.58
2019-02-26T12:58:54.542Z,72.62
2019-02-26T13:03:00.633Z,73.55
2019-02-26T13:07:06.697Z,69.50
2019-02-26T13:11:14.013Z,74.58
2019-02-26T13:15:19.363Z,76.40
2019-02-26T13:19:29.231Z,74.67
2019-02-26T13:23:31.174Z,75.40
2019-02-26T13:27:38.502Z,76.15
2019-02-26T13:31:50.775Z,76.85
2019-02-26T13:35:58.176Z,77.40
2019-02-26T13:39:58.131Z,75.78
2019-02-26T13:44:03.173Z,74.65
2019-02-26T13:48:07.571Z,77.42
2019-02-26T13:52:12.289Z,85.20
2019-02-26T13:56:16.781Z,76.53
2019-02-26T14:00:26.213Z,74.67
2019-02-26T14:04:31.510Z,76.97
2019-02-26T14:08:36.724Z,75.80
2019-02-26T14:12:41.729Z,75.08
2019-02-26T14:16:46.518Z,78.02
2019-02-26T14:20:51.361Z,79.82
2019-02-26T14:24:56.086Z,77.50
2019-02-26T14:29:01.472Z,81.50
2019-02-26T14:33:05.900Z,81.87
2019-02-26T14:37:10.381Z,81.50
2019-02-26T14:41:15.455Z,81.85
2019-02-26T14:45:20.284Z,84.45
2019-02-26T14:49:24.837Z,76.17
2019-02-26T14:53:29.352Z,78.28
2019-02-26T14:57:35.196Z,75.10
2019-02-26T15:01:39.691Z,81.92
2019-02-26T15:05:44.156Z,81.20
2019-02-26T15:09:49.028Z,81.82
2019-02-26T15:13:53.451Z,79.22
2019-02-26T15:17:58.332Z,81.78
2019-02-26T15:22:02.755Z,85.77
2019-02-26T15:26:08.103Z,88.47
2019-02-26T15:30:13.648Z,87.72
2019-02-26T15:34:18.426Z,83.95
2019-02-26T15:38:22.979Z,88.95
2019-02-26T15:42:27.775Z,94.32
2019-02-26T15:46:32.832Z,92.35
2019-02-26T15:50:40.255Z,90.75
2019-02-26T15:54:44.498Z,96.63
2019-02-26T15:58:49.554Z,97.40
2019-02-26T16:02:54.427Z,103.50
2019-02-26T16:06:58.978Z,94.85
2019-02-26T16:11:03.513Z,100.22
2019-02-26T16:15:09.269Z,101.55
2019-02-26T16:19:13.637Z,104.30
2019-02-26T16:23:18.401Z,102.38
2019-02-26T16:27:23.510Z,101.10
2019-02-26T16:31:30.012Z,98.47
2019-02-26T16:35:34.329Z,99.30
2019-02-26T16:39:40.062Z,98.58
2019-02-26T16:43:47.242Z,93.10
2019-02-26T16:47:52.207Z,103.32
2019-02-26T16:51:56.624Z,102.78
2019-02-26T16:56:01.523Z,105.83
2019-02-26T17:00:07.564Z,105.80
2019-02-26T17:04:12.921Z,100.33
2019-02-26T17:08:30.359Z,106.35
2019-02-26T17:12:38.120Z,97.65
2019-02-26T17:16:43.100Z,109.32
2019-02-26T17:20:49.484Z,106.83
2019-02-26T17:24:57.131Z,104.45
2019-02-26T17:29:02.844Z,103.00
2019-02-26T17:33:11.360Z,104.95
2019-02-26T17:37:18.152Z,100.82
2019-02-26T17:41:22.522Z,107.87
2019-02-26T17:45:27.107Z,107.27
2019-02-26T17:49:33.633Z,106.03
2019-02-26T17:53:39.288Z,113.35
2019-02-26T17:57:46.551Z,117.00
2019-02-26T18:01:51.406Z,121.10
2019-02-26T18:05:56.148Z,119.82
2019-02-26T18:10:00.940Z,110.37
2019-02-26T18:14:07.971Z,114.85
2019-02-26T18:18:13.848Z,125.27
2019-02-26T18:22:21.757Z,119.93
2019-02-26T18:26:28.439Z,118.85
2019-02-26T18:30:34.415Z,112.10
2019-02-26T18:34:39.183Z,108.07
2019-02-26T18:38:44.071Z,102.97
2019-02-26T18:42:49.474Z,112.65
2019-02-26T18:46:54.231Z,110.22
2019-02-26T18:50:59.697Z,110.35
2019-02-26T18:55:05.720Z,101.40
2019-02-26T18:59:10.498Z,107.55
2019-02-26T19:03:14.972Z,111.77
2019-02-26T19:07:20.050Z,106.03
2019-02-26T19:11:25.664Z,111.68
2019-02-26T19:15:30.926Z,117.47
2019-02-26T19:19:36.199Z,108.27
2019-02-26T19:23:40.797Z,115.22
2019-02-26T19:27:45.907Z,116.80
2019-02-26T19:31:58.294Z,107.45
2019-02-26T19:36:03.425Z,123.45
2019-02-26T19:40:10.139Z,112.17
2019-02-26T19:44:17.645Z,111.45
2019-02-26T19:48:22.278Z,123.38
2019-02-26T19:52:26.809Z,113.40
2019-02-26T19:56:33.298Z,123.65
2019-02-26T20:00:38.094Z,120.60
2019-02-26T20:04:42.716Z,114.08
2019-02-26T20:08:56.465Z,111.05
2019-02-26T20:13:01.592Z,125.05
2019-02-26T20:17:14.287Z,120.60
2019-02-26T20:21:16.884Z,129.85
2019-02-26T20:25:22.329Z,126.92
2019-02-26T20:29:28.304Z,120.05
2019-02-26T20:33:33.044Z,125.90
2019-02-26T20:37:39.531Z,124.87
2019-02-26T20:41:44.055Z,115.30
2019-02-26T20:45:51.109Z,128.18
2019-02-26T20:49:55.295Z,130.20
2019-02-26T20:54:00.092Z,121.92
2019-02-26T20:58:04.777Z,125.05
2019-02-26T21:02:10.655Z,139.45
2019-02-26T21:06:15.618Z,134.27
2019-02-26T21:10:22.008Z,136.55
2019-02-26T21:14:31.593Z,132.87
2019-02-26T21:18:40.022Z,132.67
2019-02-26T21:22:49.612Z,130.22
2019-02-26T21:26:54.947Z,148.70
2019-02-26T21:30:59.435Z,142.03
2019-02-26T21:35:04.782Z,135.88
2019-02-26T21:39:11.104Z,136.25
2019-02-26T21:43:17.189Z,129.30
2019-02-26T21:47:21.612Z,147.90
2019-02-26T21:51:27.980Z,139.90
2019-02-26T21:55:43.963Z,136.82
2019-02-26T21:59:39.883Z,135.93
2019-02-26T22:03:44.446Z,139.40
2019-02-26T22:07:52.140Z,136.22
2019-02-26T22:11:55.714Z,134.57
2019-02-26T22:16:02.389Z,136.35
2019-02-26T22:20:09.275Z,142.75
2019-02-26T22:24:14.300Z,130.52
2019-02-26T22:28:18.864Z,145.62
2019-02-26T22:32:23.976Z,138.18
2019-02-26T22:36:30.780Z,132.67
2019-02-26T22:40:34.499Z,142.70
2019-02-26T22:44:39.464Z,146.93
2019-02-26T22:48:44.569Z,148.78
2019-02-26T22:52:50.148Z,151.65
2019-02-26T22:56:56.851Z,145.20
2019-02-26T23:01:16.335Z,144.85
2019-02-26T23:05:29.129Z,141.47
2019-02-26T23:09:34.607Z,147.22
2019-02-26T23:13:39.765Z,139.77
2019-02-26T23:17:44.272Z,145.25
2019-02-26T23:21:49.975Z,152.47
2019-02-26T23:25:55.202Z,149.77
2019-02-26T23:29:59.692Z,149.80
2019-02-26T23:34:05.468Z,154.72
2019-02-26T23:38:09.904Z,149.70
2019-02-26T23:42:14.874Z,158.10
2019-02-26T23:46:19.318Z,152.00
2019-02-26T23:50:24.758Z,133.00
2019-02-26T23:54:29.519Z,138.90
2019-02-26T23:58:34.195Z,163.65
